Terminal Aerodrome Forecast
Issued by NWS

Home | Current Version | Previous Version | Text Only | Print | Product List | Glossary On
Versions: 1 2 3 4 5 6 7 8 9 10 11 12 13 14 15
000
FTUS41 KBTV 250531
TAFMPV
TAF
KMPV 250531Z 2506/2606 VRB02KT 6SM BR VCSH SCT008 OVC015
      TEMPO 2506/2510 3SM -SHRA BR BKN008
     FM251000 00000KT 4SM BR VCSH SCT003 OVC008
     FM251300 VRB02KT P6SM OVC018
     FM251800 35005KT P6SM OVC035
     FM260000 VRB03KT P6SM SKC=

USA.gov is the U.S. government's official web portal to all federal, state and local government web resources and services.